Time;durP1;ratioP1;P1;durP2;ratioP2;P2;SDS_P1;SDS_P2;PMS_P1;PMS_P2;Temp;Humidity;BMP_temperature;BMP_pressure;BME280_temperature;BME280_humidity;BME280_pressure;Samples;Min_cycle;Max_cycle;Signal;HPM_P1;HPM_P2
2022/07/23 00:01:27;;;;;;;8.52;5.75;;;;;;;18.20;100.00;99582.78;5091369;28;20062;-52
2022/07/23 00:03:54;;;;;;;16.52;4.20;;;;;;;18.16;100.00;99589.53;5091175;28;20503;-53
2022/07/23 00:06:20;;;;;;;6.45;3.90;;;;;;;18.11;100.00;99590.78;5091315;28;20087;-51
2022/07/23 00:08:47;;;;;;;9.85;5.20;;;;;;;18.04;100.00;99601.91;5091091;28;20063;-52
2022/07/23 00:11:13;;;;;;;7.10;5.55;;;;;;;18.00;100.00;99613.03;5091153;28;20051;-52
2022/07/23 00:13:40;;;;;;;8.65;4.20;;;;;;;18.02;100.00;99624.50;5090998;28;20052;-53
2022/07/23 00:16:07;;;;;;;5.40;3.80;;;;;;;18.01;100.00;99620.16;5091049;28;20473;-51
2022/07/23 00:18:33;;;;;;;6.35;4.15;;;;;;;17.99;100.00;99630.06;5090716;28;20056;-51
2022/07/23 00:20:59;;;;;;;7.93;4.43;;;;;;;17.96;100.00;99623.34;5090837;28;20060;-51
2022/07/23 00:23:27;;;;;;;8.70;4.20;;;;;;;17.97;100.00;99632.47;5090887;28;20134;-54
2022/07/23 00:25:53;;;;;;;8.63;4.35;;;;;;;17.93;100.00;99634.47;5090985;28;20052;-51
2022/07/23 00:28:19;;;;;;;8.27;4.38;;;;;;;17.92;100.00;99636.44;5090530;28;20060;-54
2022/07/23 00:30:46;;;;;;;4.30;3.75;;;;;;;17.90;100.00;99629.72;5090739;28;20048;-49
2022/07/23 00:33:13;;;;;;;9.73;5.68;;;;;;;17.80;100.00;99637.69;5090776;28;20612;-50
2022/07/23 00:35:41;;;;;;;7.72;4.30;;;;;;;17.85;100.00;99642.00;5090984;28;20048;-52
2022/07/23 00:38:09;;;;;;;8.23;3.95;;;;;;;17.85;100.00;99647.56;5090698;28;20044;-54
2022/07/23 00:40:37;;;;;;;7.78;5.35;;;;;;;17.80;100.00;99640.47;5090416;28;20048;-51
2022/07/23 00:43:03;;;;;;;7.78;4.63;;;;;;;17.83;100.00;99645.22;5090571;28;20048;-52
2022/07/23 00:45:30;;;;;;;12.20;4.50;;;;;;;17.80;100.00;99639.69;5090349;28;20062;-52
2022/07/23 00:47:57;;;;;;;11.50;5.88;;;;;;;17.69;100.00;99638.88;5090747;28;20134;-49
2022/07/23 00:50:24;;;;;;;8.07;5.45;;;;;;;17.67;100.00;99638.50;5090503;28;20051;-50
2022/07/23 00:52:52;;;;;;;5.22;4.13;;;;;;;17.69;100.00;99636.09;5090315;28;20139;-50
2022/07/23 00:55:18;;;;;;;7.05;3.78;;;;;;;17.69;100.00;99641.66;5090445;28;20054;-50
2022/07/23 00:57:44;;;;;;;6.53;3.53;;;;;;;17.68;100.00;99643.63;5090220;28;20091;-50
2022/07/23 01:00:13;;;;;;;11.93;5.80;;;;;;;17.66;100.00;99648.81;5090409;28;20091;-50
2022/07/23 01:02:40;;;;;;;6.85;4.53;;;;;;;17.64;100.00;99651.19;5090329;28;20063;-53
2022/07/23 01:05:08;;;;;;;8.00;5.85;;;;;;;17.60;100.00;99648.41;5090445;28;20044;-50
2022/07/23 01:07:34;;;;;;;7.43;4.07;;;;;;;17.61;100.00;99651.97;5090204;28;20507;-50
2022/07/23 01:10:01;;;;;;;7.50;5.45;;;;;;;17.60;100.00;99655.94;5089694;28;20103;-50
2022/07/23 01:12:28;;;;;;;6.43;5.43;;;;;;;17.53;100.00;99648.44;5089755;28;20655;-51
2022/07/23 01:14:54;;;;;;;6.47;4.18;;;;;;;17.58;100.00;99655.53;5090392;28;20514;-50
2022/07/23 01:17:21;;;;;;;9.40;4.45;;;;;;;17.59;100.00;99651.56;5090101;28;20052;-49
2022/07/23 01:19:47;;;;;;;5.63;3.97;;;;;;;17.59;100.00;99649.63;5089961;28;20047;-51
2022/07/23 01:22:17;;;;;;;7.75;4.28;;;;;;;17.57;100.00;99649.22;5090031;28;20048;-51
2022/07/23 01:24:44;;;;;;;6.43;4.00;;;;;;;17.53;100.00;99647.66;5089772;28;20134;-51
2022/07/23 01:27:12;;;;;;;9.88;4.60;;;;;;;17.48;100.00;99648.84;5090056;28;20407;-50
2022/07/23 01:29:38;;;;;;;8.35;5.65;;;;;;;17.45;100.00;99646.06;5089803;28;20047;-50
2022/07/23 01:32:05;;;;;;;9.38;5.78;;;;;;;17.40;100.00;99647.28;5090175;28;20059;-50
2022/07/23 01:34:31;;;;;;;9.63;4.30;;;;;;;17.29;100.00;99647.28;5089713;28;20499;-50
2022/07/23 01:36:58;;;;;;;5.03;3.85;;;;;;;17.35;100.00;99640.16;5089809;28;20143;-50
2022/07/23 01:39:24;;;;;;;6.97;4.40;;;;;;;17.39;100.00;99648.47;5089723;28;20142;-50
2022/07/23 01:41:51;;;;;;;9.50;4.78;;;;;;;17.39;100.00;99645.69;5089442;28;20058;-50
2022/07/23 01:44:17;;;;;;;6.72;4.30;;;;;;;17.37;100.00;99643.31;5089611;28;20429;-51
2022/07/23 01:46:43;;;;;;;7.97;4.75;;;;;;;17.27;100.00;99646.91;5089534;28;20063;-51
2022/07/23 01:49:10;;;;;;;10.30;4.93;;;;;;;17.33;100.00;99642.56;5089803;28;20427;-53
2022/07/23 01:51:36;;;;;;;23.08;4.53;;;;;;;17.32;100.00;99640.94;5089617;28;20048;-51
2022/07/23 01:54:02;;;;;;;9.00;4.25;;;;;;;17.28;100.00;99633.84;5089501;28;20058;-51
2022/07/23 01:56:29;;;;;;;20.10;5.65;;;;;;;17.30;100.00;99639.78;5089423;28;20074;-52
2022/07/23 01:58:56;;;;;;;9.13;5.18;;;;;;;17.28;100.00;99642.94;5089656;28;20112;-52
2022/07/23 02:01:22;;;;;;;8.40;4.93;;;;;;;17.30;100.00;99643.34;5089453;28;20044;-54
2022/07/23 02:03:48;;;;;;;13.07;4.63;;;;;;;17.25;100.00;99640.19;5089491;28;20426;-53
2022/07/23 02:06:14;;;;;;;9.55;4.18;;;;;;;17.26;100.00;99642.56;5089487;28;20460;-50
2022/07/23 02:08:40;;;;;;;12.35;6.10;;;;;;;17.16;100.00;99635.84;5089215;28;20078;-52
2022/07/23 02:11:07;;;;;;;10.52;4.85;;;;;;;17.18;100.00;99646.53;5089328;28;20056;-51
2022/07/23 02:13:33;;;;;;;9.57;4.30;;;;;;;17.22;100.00;99644.53;5089219;28;20484;-52
2022/07/23 02:16:00;;;;;;;7.05;4.00;;;;;;;17.27;100.00;99646.13;5089470;28;20430;-54
2022/07/23 02:18:26;;;;;;;7.13;4.40;;;;;;;17.22;100.00;99638.19;5089255;28;20499;-52
2022/07/23 02:20:52;;;;;;;8.88;4.65;;;;;;;17.25;100.00;99642.94;5089329;28;20101;-50
2022/07/23 02:23:19;;;;;;;7.38;4.45;;;;;;;17.22;100.00;99644.53;5092178;28;20139;-52
2022/07/23 02:25:45;;;;;;;7.45;4.15;;;;;;;17.27;100.00;99651.66;5092761;28;20052;-51
2022/07/23 02:28:11;;;;;;;10.93;4.68;;;;;;;17.24;100.00;99644.94;5092561;28;20619;-51
2022/07/23 02:30:39;;;;;;;8.65;5.30;;;;;;;17.17;100.00;99644.94;5092769;28;20062;-51
2022/07/23 02:33:06;;;;;;;15.85;5.15;;;;;;;17.31;100.00;99647.69;5092569;28;20431;-51
2022/07/23 02:35:32;;;;;;;8.32;4.60;;;;;;;17.30;100.00;99646.13;5092570;28;20055;-52
2022/07/23 02:37:58;;;;;;;11.20;4.65;;;;;;;17.34;100.00;99640.56;5092503;28;20048;-51
2022/07/23 02:40:24;;;;;;;7.70;4.78;;;;;;;17.36;100.00;99636.22;5092685;28;20048;-52
2022/07/23 02:42:50;;;;;;;10.70;5.85;;;;;;;17.35;100.00;99639.38;5092544;28;20428;-53
2022/07/23 02:45:17;;;;;;;10.68;6.18;;;;;;;17.37;100.00;99631.44;5092338;28;20044;-50
2022/07/23 02:47:43;;;;;;;9.57;5.70;;;;;;;17.31;100.00;99636.59;5092792;28;20503;-51
2022/07/23 02:50:11;;;;;;;10.57;4.00;;;;;;;17.64;100.00;99634.53;5092425;28;20063;-52
2022/07/23 02:52:38;;;;;;;12.15;4.35;;;;;;;17.70;100.00;99632.94;5092440;28;20126;-50
2022/07/23 02:55:06;;;;;;;10.35;4.07;;;;;;;17.76;100.00;99633.28;5092411;28;20480;-50
2022/07/23 02:57:32;;;;;;;14.20;4.43;;;;;;;17.70;100.00;99630.16;5092357;28;20058;-50
2022/07/23 02:59:58;;;;;;;14.65;5.68;;;;;;;17.83;100.00;99633.31;5092490;28;20055;-50
2022/07/23 03:02:24;;;;;;;5.82;4.22;;;;;;;18.17;100.00;99616.13;5092380;28;20163;-54
2022/07/23 03:04:51;;;;;;;9.98;4.45;;;;;;;18.63;100.00;99596.38;5092224;28;20566;-51
2022/07/23 03:07:18;;;;;;;14.77;6.25;;;;;;;19.08;100.00;99518.56;5092644;28;20101;-52
2022/07/23 03:09:45;;;;;;;10.38;6.07;;;;;;;19.48;100.00;99408.47;5092127;28;20089;-53
2022/07/23 03:12:11;;;;;;;8.32;5.40;;;;;;;19.75;100.00;99265.84;5092172;28;20055;-52
2022/07/23 03:14:37;;;;;;;11.98;4.60;;;;;;;20.22;100.00;99169.13;5092122;28;20063;-50
2022/07/23 03:17:03;;;;;;;12.93;4.22;;;;;;;20.48;100.00;98957.75;5091991;28;20134;-51
2022/07/23 03:19:30;;;;;;;11.30;4.68;;;;;;;20.84;100.00;98895.53;5091865;28;20519;-52
2022/07/23 03:21:56;;;;;;;6.63;3.92;;;;;;;21.02;100.00;98812.19;5091731;28;20095;-51
2022/07/23 03:24:53;;;;;;;9.02;4.32;;;;;;;21.33;100.00;98753.91;5091873;28;20101;-51
2022/07/23 03:27:09;;;;;;;12.70;5.85;;;;;;;21.60;100.00;98588.09;5091571;28;20056;-51
2022/07/23 03:29:36;;;;;;;5.22;3.97;;;;;;;21.91;100.00;98521.16;5091517;28;20499;-52
2022/07/23 03:32:03;;;;;;;8.40;3.80;;;;;;;22.17;100.00;98437.28;5091606;28;20056;-52
2022/07/23 03:34:29;;;;;;;9.73;4.68;;;;;;;22.40;100.00;98394.81;5090764;28;20048;-53
2022/07/23 03:36:55;;;;;;;17.50;6.32;;;;;;;22.65;100.00;98303.56;5091843;28;20052;-51
2022/07/23 03:39:22;;;;;;;13.60;4.57;;;;;;;22.87;100.00;98276.19;5091366;28;20048;-54
2022/07/23 03:41:49;;;;;;;23.13;6.07;;;;;;;23.11;100.00;98233.59;5091734;28;20044;-52
2022/07/23 03:44:15;;;;;;;22.92;5.72;;;;;;;23.36;100.00;98237.97;5091614;28;20135;-50
2022/07/23 03:46:41;;;;;;;11.10;5.63;;;;;;;23.44;100.00;98195.22;5091680;28;20131;-51
2022/07/23 03:49:07;;;;;;;12.02;5.82;;;;;;;23.76;100.00;98164.06;5091181;28;20073;-55
2022/07/23 03:51:33;;;;;;;10.80;5.32;;;;;;;23.91;100.00;98148.09;5091534;28;20630;-51
2022/07/23 03:54:00;;;;;;;9.45;5.50;;;;;;;24.15;100.00;98143.19;5091236;28;20058;-51
2022/07/23 03:56:27;;;;;;;9.75;5.45;;;;;;;24.36;100.00;98121.69;5091295;28;20055;-51
2022/07/23 03:58:53;;;;;;;9.55;5.68;;;;;;;24.49;100.00;98117.81;5091251;28;20147;-52
2022/07/23 04:01:19;;;;;;;12.18;5.43;;;;;;;24.79;100.00;98113.72;5091155;28;20125;-52
2022/07/23 04:03:46;;;;;;;12.48;5.18;;;;;;;25.10;100.00;98112.38;5090995;28;20054;-53
2022/07/23 04:06:12;;;;;;;9.88;5.38;;;;;;;25.31;100.00;98113.16;5091013;28;20047;-51
2022/07/23 04:08:38;;;;;;;8.85;5.00;;;;;;;25.54;100.00;98117.03;5091311;28;20047;-52
2022/07/23 04:11:05;;;;;;;13.73;5.45;;;;;;;25.42;100.00;98121.72;5091157;28;20100;-52
2022/07/23 04:13:32;;;;;;;7.53;5.20;;;;;;;25.84;100.00;98133.72;5091186;28;20101;-50
2022/07/23 04:15:58;;;;;;;8.55;4.90;;;;;;;25.78;100.00;98156.84;5090823;28;20122;-51
2022/07/23 04:18:25;;;;;;;8.82;5.10;;;;;;;26.11;100.00;98118.41;5091217;28;20465;-52
2022/07/23 04:20:52;;;;;;;9.38;5.40;;;;;;;26.12;100.00;98137.56;5091078;28;20048;-52
2022/07/23 04:23:18;;;;;;;11.55;5.55;;;;;;;26.25;100.00;98121.09;5090853;28;20048;-54
2022/07/23 04:25:44;;;;;;;6.35;4.63;;;;;;;26.60;100.00;98137.00;5091073;28;20249;-51
2022/07/23 04:28:11;;;;;;;7.07;4.43;;;;;;;26.62;100.00;98181.47;5090582;28;20044;-51
2022/07/23 04:30:38;;;;;;;11.73;4.90;;;;;;;26.88;100.00;98125.19;5090866;28;20044;-54
2022/07/23 04:33:06;;;;;;;10.93;5.20;;;;;;;27.12;100.00;98156.53;5091210;28;20151;-54
2022/07/23 04:35:32;;;;;;;17.27;4.90;;;;;;;27.46;100.00;98215.88;5090857;28;20454;-52
2022/07/23 04:37:59;;;;;;;16.70;5.68;;;;;;;27.32;100.00;98216.78;5090602;28;20100;-52
2022/07/23 04:40:25;;;;;;;9.43;5.10;;;;;;;27.60;100.00;98248.69;5090797;28;20052;-54
2022/07/23 04:42:51;;;;;;;12.88;5.60;;;;;;;27.87;100.00;98226.84;5090803;28;20052;-54
2022/07/23 04:45:18;;;;;;;12.27;5.85;;;;;;;28.17;100.00;98248.97;5089907;28;20048;-50
2022/07/23 04:47:45;;;;;;;5.18;4.63;;;;;;;28.06;100.00;98269.44;5090472;28;20055;-51
2022/07/23 04:50:11;;;;;;;7.05;4.20;;;;;;;27.90;100.00;98220.97;5090703;28;20052;-51
2022/07/23 04:52:37;;;;;;;6.07;4.20;;;;;;;28.41;100.00;98279.56;5090387;28;20603;-51
2022/07/23 04:55:05;;;;;;;6.68;4.07;;;;;;;28.50;100.00;98344.16;5090414;28;20048;-52
2022/07/23 04:57:31;;;;;;;6.03;3.70;;;;;;;28.78;100.00;98318.84;5090299;28;20116;-52
2022/07/23 04:59:57;;;;;;;5.75;4.55;;;;;;;28.93;100.00;98344.03;5090557;28;20504;-54
2022/07/23 05:02:23;;;;;;;7.93;3.28;;;;;;;28.80;100.00;98409.38;5090058;28;20052;-51
2022/07/23 05:04:50;;;;;;;3.75;2.90;;;;;;;28.88;100.00;98426.59;5090137;28;20075;-54
2022/07/23 05:07:16;;;;;;;5.72;2.92;;;;;;;29.16;100.00;98463.34;5090438;28;20056;-53
2022/07/23 05:09:42;;;;;;;4.50;3.00;;;;;;;28.91;100.00;98420.69;5089907;28;20063;-52
2022/07/23 05:12:09;;;;;;;6.03;3.30;;;;;;;29.46;100.00;98453.16;5090076;28;20055;-51
2022/07/23 05:14:35;;;;;;;6.30;2.97;;;;;;;29.42;100.00;98458.28;5089999;28;20044;-55
2022/07/23 05:17:01;;;;;;;6.10;3.40;;;;;;;29.04;100.00;98477.44;5090007;28;20051;-52
2022/07/23 05:19:27;;;;;;;5.03;3.03;;;;;;;29.59;100.00;98480.13;5090017;28;20055;-53
2022/07/23 05:21:54;;;;;;;5.40;2.80;;;;;;;30.06;100.00;98486.84;5089822;28;20499;-51
2022/07/23 05:24:21;;;;;;;3.65;3.17;;;;;;;29.93;100.00;98495.09;5089944;28;20048;-50
2022/07/23 05:26:47;;;;;;;9.23;3.30;;;;;;;29.76;100.00;98472.47;5089833;28;20423;-49
2022/07/23 05:29:13;;;;;;;4.43;2.85;;;;;;;29.98;100.00;98483.00;5089793;28;20052;-52
2022/07/23 05:31:39;;;;;;;4.28;2.95;;;;;;;30.32;100.00;98489.41;5089821;28;20094;-52
2022/07/23 05:34:06;;;;;;;8.52;3.03;;;;;;;30.10;100.00;98497.91;5089798;28;20143;-53
2022/07/23 05:36:32;;;;;;;8.60;3.20;;;;;;;30.39;100.00;98502.25;5089863;28;20120;-53
2022/07/23 05:38:59;;;;;;;7.07;2.75;;;;;;;30.64;100.00;98495.50;5090042;28;20078;-53
2022/07/23 05:41:25;;;;;;;4.20;2.90;;;;;;;31.06;100.00;98512.63;5089621;28;20531;-50
2022/07/23 05:43:51;;;;;;;5.15;2.97;;;;;;;31.09;100.00;98508.72;5089846;28;20452;-53
2022/07/23 05:46:18;;;;;;;6.50;2.80;;;;;;;30.94;100.00;98515.47;5089813;28;20445;-52
2022/07/23 05:48:45;;;;;;;6.07;2.88;;;;;;;30.97;100.00;98491.03;5089552;28;20052;-50
2022/07/23 05:51:12;;;;;;;11.00;3.20;;;;;;;30.87;100.00;98495.47;5089579;28;20052;-53
2022/07/23 05:53:38;;;;;;;5.18;2.50;;;;;;;30.38;100.00;98497.88;5089571;28;20499;-51
2022/07/23 05:56:05;;;;;;;7.78;3.47;;;;;;;31.21;100.00;98530.03;5089343;28;20056;-49
2022/07/23 05:58:31;;;;;;;5.82;2.50;;;;;;;31.03;100.00;98522.91;5093338;28;20481;-50
2022/07/23 06:00:58;;;;;;;2.90;2.70;;;;;;;30.81;100.00;98508.84;5093362;28;20108;-51
2022/07/23 06:03:24;;;;;;;5.70;3.40;;;;;;;30.98;100.00;98495.41;5092978;28;20048;-51
2022/07/23 06:05:51;;;;;;;5.20;3.03;;;;;;;31.46;100.00;98513.19;5093109;28;20488;-52
2022/07/23 06:08:17;;;;;;;3.58;2.75;;;;;;;31.17;100.00;98501.22;5093009;28;20047;-53
2022/07/23 06:10:43;;;;;;;3.38;2.60;;;;;;;31.67;100.00;98522.84;5093169;28;20052;-53
2022/07/23 06:13:10;;;;;;;6.07;2.63;;;;;;;32.04;100.00;98525.16;5093124;28;20052;-54
2022/07/23 06:15:37;;;;;;;5.38;2.85;;;;;;;31.52;100.00;98528.09;5093066;28;20526;-52
2022/07/23 06:18:03;;;;;;;5.82;2.75;;;;;;;30.23;100.00;98492.50;5093014;28;20163;-51
2022/07/23 06:20:29;;;;;;;4.60;2.72;;;;;;;31.12;100.00;98505.66;5092959;28;20515;-54
2022/07/23 06:22:56;;;;;;;3.78;3.03;;;;;;;31.53;100.00;98518.31;5092863;28;20052;-50
2022/07/23 06:25:22;;;;;;;5.82;3.40;;;;;;;31.77;100.00;98501.38;5093055;28;20131;-50
2022/07/23 06:27:49;;;;;;;3.53;2.90;;;;;;;31.69;100.00;98516.63;5092577;28;20055;-54
2022/07/23 06:30:17;;;;;;;5.55;3.30;;;;;;;32.25;100.00;98507.72;5092528;28;20519;-53
2022/07/23 06:32:43;;;;;;;3.67;3.15;;;;;;;31.92;100.00;98520.09;5092671;28;20052;-54
2022/07/23 06:35:10;;;;;;;6.65;3.20;;;;;;;32.42;100.00;98521.72;5092545;28;20052;-53
2022/07/23 06:37:36;;;;;;;5.53;3.00;;;;;;;32.54;100.00;98520.34;5092595;28;20051;-52
2022/07/23 06:40:03;;;;;;;5.75;3.17;;;;;;;31.68;100.00;98492.44;5092329;28;20695;-50
2022/07/23 06:42:29;;;;;;;5.28;3.10;;;;;;;32.05;100.00;98512.50;5092502;28;20142;-51
2022/07/23 06:44:55;;;;;;;10.88;3.30;;;;;;;32.42;100.00;98488.47;5092412;28;20052;-50
2022/07/23 06:47:22;;;;;;;5.97;3.25;;;;;;;32.91;100.00;98507.53;5092407;28;20126;-52
2022/07/23 06:49:48;;;;;;;8.75;3.50;;;;;;;32.97;100.00;98511.13;5092257;28;20157;-50
2022/07/23 06:52:15;;;;;;;5.28;3.35;;;;;;;33.05;100.00;98512.03;5092526;28;20097;-52
2022/07/23 06:54:41;;;;;;;3.50;3.20;;;;;;;31.94;100.00;98503.34;5092375;28;20059;-52
2022/07/23 06:57:07;;;;;;;5.07;3.88;;;;;;;31.48;100.00;98473.78;5092493;28;20063;-52
2022/07/23 06:59:36;;;;;;;5.88;3.80;;;;;;;32.42;100.00;98501.88;5092233;28;20052;-54
2022/07/23 07:02:02;;;;;;;11.75;4.38;;;;;;;33.09;100.00;98503.22;5092289;28;20150;-54
2022/07/23 07:04:29;;;;;;;6.97;4.15;;;;;;;33.27;100.00;98494.69;5092140;28;20052;-51
2022/07/23 07:06:55;;;;;;;12.05;4.30;;;;;;;32.85;100.00;98489.81;5092053;28;20185;-51
2022/07/23 07:09:21;;;;;;;5.53;4.32;;;;;;;32.87;100.00;98504.25;5091016;28;20060;-53
2022/07/23 07:11:47;;;;;;;8.75;5.68;;;;;;;33.33;100.00;98525.13;5091938;28;20052;-54
2022/07/23 07:14:14;;;;;;;7.65;4.80;;;;;;;32.73;100.00;98509.81;5091862;28;20105;-52
2022/07/23 07:16:40;;;;;;;5.65;3.72;;;;;;;32.65;100.00;98493.91;5091980;28;20058;-51
2022/07/23 07:19:06;;;;;;;12.05;3.90;;;;;;;33.11;100.00;98495.69;5092133;28;20048;-51
2022/07/23 07:21:33;;;;;;;5.18;4.28;;;;;;;33.18;100.00;98500.75;5091895;28;20048;-53
2022/07/23 07:23:59;;;;;;;7.45;4.40;;;;;;;33.28;100.00;98493.38;5091532;28;20143;-54
2022/07/23 07:26:26;;;;;;;6.35;4.65;;;;;;;33.58;100.00;98506.69;5091706;28;20100;-54
2022/07/23 07:28:52;;;;;;;12.85;3.85;;;;;;;33.44;100.00;98485.16;5091532;28;20048;-53
2022/07/23 07:31:18;;;;;;;4.30;3.53;;;;;;;33.40;100.00;98482.66;5091612;28;20062;-51
2022/07/23 07:33:44;;;;;;;6.13;3.83;;;;;;;33.13;100.00;98487.41;5091639;28;20052;-53
2022/07/23 07:36:11;;;;;;;6.10;4.13;;;;;;;34.02;100.00;98495.91;5091565;28;20495;-52
2022/07/23 07:38:38;;;;;;;4.53;3.20;;;;;;;34.87;100.00;98498.75;5091631;28;20052;-53
2022/07/23 07:41:04;;;;;;;3.85;3.33;;;;;;;35.23;100.00;98541.03;5091407;28;20044;-52
2022/07/23 07:43:30;;;;;;;3.97;3.53;;;;;;;33.90;100.00;98542.91;5091687;28;20044;-51
2022/07/23 07:45:56;;;;;;;7.03;3.85;;;;;;;35.19;100.00;98520.66;5091745;28;20484;-52
2022/07/23 07:48:23;;;;;;;6.00;3.85;;;;;;;34.69;100.00;98518.78;5091363;28;20105;-54
2022/07/23 07:50:49;;;;;;;5.90;3.95;;;;;;;34.34;100.00;98541.41;5091841;28;20058;-51
2022/07/23 07:53:15;;;;;;;4.45;3.60;;;;;;;33.56;100.00;98542.66;5091506;28;20048;-53
2022/07/23 07:55:42;;;;;;;3.90;3.60;;;;;;;34.59;100.00;98544.88;5091505;28;20044;-52
2022/07/23 07:58:08;;;;;;;6.72;3.95;;;;;;;34.70;100.00;98575.19;5091414;28;20067;-53
2022/07/23 08:00:34;;;;;;;6.80;3.97;;;;;;;35.15;100.00;98560.09;5091186;28;20488;-52
2022/07/23 08:03:01;;;;;;;7.60;3.95;;;;;;;34.34;100.00;98549.19;5091252;28;20077;-51
2022/07/23 08:05:29;;;;;;;6.03;4.05;;;;;;;33.73;100.00;98523.25;5091078;28;20055;-53
2022/07/23 08:07:56;;;;;;;6.55;4.10;;;;;;;34.80;100.00;98535.69;5091232;28;20052;-51
2022/07/23 08:10:23;;;;;;;6.90;4.70;;;;;;;34.72;100.00;98535.56;5091107;28;20056;-52
2022/07/23 08:12:53;;;;;;;4.82;3.95;;;;;;;34.56;100.00;98536.66;5091117;28;20055;-55
2022/07/23 08:15:20;;;;;;;7.25;3.97;;;;;;;35.25;100.00;98538.38;5091248;28;20562;-53
2022/07/23 08:17:47;;;;;;;6.45;3.78;;;;;;;35.46;100.00;98549.09;5090936;28;20098;-52
2022/07/23 08:20:15;;;;;;;8.18;4.28;;;;;;;34.97;100.00;98587.38;5090821;28;20052;-53
2022/07/23 08:22:46;;;;;;;6.95;4.45;;;;;;;34.53;100.00;98581.19;5090975;28;20048;-54
2022/07/23 08:25:12;;;;;;;9.02;4.20;;;;;;;35.57;100.00;98554.56;5091010;28;20474;-50
2022/07/23 08:27:39;;;;;;;4.82;4.32;;;;;;;35.92;100.00;98555.31;5090631;28;20048;-54
2022/07/23 08:30:07;;;;;;;15.48;4.78;;;;;;;35.82;100.00;98524.44;5090734;28;20051;-52
2022/07/23 08:32:34;;;;;;;6.72;4.68;;;;;;;35.17;100.00;98551.78;5090590;28;20048;-52
2022/07/23 08:35:00;;;;;;;7.00;4.20;;;;;;;35.91;100.00;98556.63;5090589;28;20109;-54
2022/07/23 08:37:26;;;;;;;7.47;4.40;;;;;;;36.16;100.00;98565.66;5090548;28;20048;-52
2022/07/23 08:39:53;;;;;;;5.88;4.28;;;;;;;35.69;100.00;98592.13;5090446;28;20048;-54
2022/07/23 08:42:20;;;;;;;4.85;3.83;;;;;;;35.47;100.00;98548.53;5090635;28;20408;-54
2022/07/23 08:44:48;;;;;;;6.68;4.05;;;;;;;35.21;100.00;98572.16;5090793;28;20055;-54
2022/07/23 08:47:15;;;;;;;8.18;4.72;;;;;;;34.14;100.00;98545.63;5090185;28;20077;-52
2022/07/23 08:49:42;;;;;;;7.35;4.57;;;;;;;34.69;100.00;98525.28;5090278;28;20058;-51
2022/07/23 08:52:09;;;;;;;9.23;4.78;;;;;;;35.02;100.00;98554.41;5090409;28;20058;-52
2022/07/23 08:54:35;;;;;;;4.63;4.00;;;;;;;35.15;100.00;98562.19;5090369;28;20052;-54
2022/07/23 08:57:02;;;;;;;9.38;4.68;;;;;;;34.28;100.00;98543.56;5090285;28;20048;-52
2022/07/23 08:59:29;;;;;;;4.45;4.05;;;;;;;34.61;100.00;98547.16;5090260;28;20138;-51
2022/07/23 09:01:55;;;;;;;4.78;4.28;;;;;;;35.06;100.00;98527.16;5090468;28;20555;-53
2022/07/23 09:04:22;;;;;;;5.80;4.97;;;;;;;35.33;100.00;98549.91;5090261;28;20059;-54
2022/07/23 09:06:49;;;;;;;6.60;4.72;;;;;;;35.72;100.00;98545.41;5090189;28;20048;-54
2022/07/23 09:09:20;;;;;;;8.50;4.60;;;;;;;36.18;100.00;98540.94;5089965;28;20054;-55
2022/07/23 09:11:47;;;;;;;6.82;4.50;;;;;;;34.33;100.00;98539.13;5090511;28;20086;-53
2022/07/23 09:14:13;;;;;;;5.53;4.22;;;;;;;35.25;100.00;98540.47;5090051;28;20048;-53
2022/07/23 09:16:39;;;;;;;5.90;4.95;;;;;;;34.05;100.00;98519.66;5090412;28;20550;-54
2022/07/23 09:19:07;;;;;;;5.22;4.82;;;;;;;34.52;100.00;98547.56;5090278;28;20138;-51
2022/07/23 09:21:35;;;;;;;6.65;4.68;;;;;;;33.56;100.00;98532.03;5089990;28;20059;-51
2022/07/23 09:24:03;;;;;;;6.20;4.70;;;;;;;34.74;100.00;98510.16;5090264;28;20063;-51
2022/07/23 09:26:32;;;;;;;5.47;4.82;;;;;;;34.65;100.00;98510.59;5089837;28;20048;-50
2022/07/23 09:29:02;;;;;;;9.93;4.72;;;;;;;34.52;100.00;98524.81;5089673;28;20058;-54
2022/07/23 09:31:34;;;;;;;8.85;4.80;;;;;;;35.01;100.00;98522.28;5089393;28;20048;-54
2022/07/23 09:34:08;;;;;;;9.00;4.72;;;;;;;33.02;100.00;98454.28;5089909;28;20075;-52
2022/07/23 09:36:36;;;;;;;7.18;4.72;;;;;;;34.60;100.00;98471.63;5089824;28;20521;-51
2022/07/23 09:39:03;;;;;;;5.10;4.63;;;;;;;34.21;100.00;98487.31;5089674;28;20430;-55
2022/07/23 09:41:35;;;;;;;6.63;4.90;;;;;;;34.07;100.00;98477.25;5089560;28;20052;-54
2022/07/23 09:44:08;;;;;;;6.95;5.32;;;;;;;34.38;100.00;98476.41;5089683;28;20048;-54
2022/07/23 09:46:35;;;;;;;8.55;4.68;;;;;;;34.92;100.00;98479.25;5089941;28;20105;-53
2022/07/23 09:49:11;;;;;;;6.72;4.68;;;;;;;33.61;100.00;98413.91;5089579;28;20426;-50
2022/07/23 09:51:45;;;;;;;5.22;4.78;;;;;;;34.47;100.00;98468.75;5089476;28;20054;-53
2022/07/23 09:54:25;;;;;;;10.55;4.90;;;;;;;33.68;100.00;98445.28;5089513;28;20416;-53
2022/07/23 09:56:52;;;;;;;9.50;4.78;;;;;;;33.83;100.00;98464.69;5089697;28;20109;-50
2022/07/23 09:59:22;;;;;;;6.88;4.90;;;;;;;34.12;100.00;98445.88;5089430;28;20101;-51
2022/07/23 10:01:50;;;;;;;7.18;4.90;;;;;;;33.99;100.00;98431.59;5089416;28;20104;-50
2022/07/23 10:04:18;;;;;;;6.28;5.00;;;;;;;33.65;100.00;98443.53;5089591;28;20058;-51
2022/07/23 10:06:46;;;;;;;8.68;5.00;;;;;;;34.47;100.00;98494.38;5089357;28;20048;-50
2022/07/23 10:09:16;;;;;;;8.15;5.72;;;;;;;34.37;100.00;98468.41;5089580;28;20044;-50
2022/07/23 10:11:43;;;;;;;6.70;4.68;;;;;;;33.26;100.00;98442.03;5089560;28;20058;-54
2022/07/23 10:14:09;;;;;;;7.85;5.05;;;;;;;33.09;100.00;98415.19;5089424;28;20052;-50
2022/07/23 10:16:35;;;;;;;8.45;5.00;;;;;;;33.39;100.00;98424.31;5089280;28;20487;-52
2022/07/23 10:19:03;;;;;;;7.07;4.78;;;;;;;33.10;100.00;98417.50;5089470;28;20056;-52
2022/07/23 10:21:39;;;;;;;5.93;4.70;;;;;;;34.18;100.00;98423.75;5089276;28;20067;-54
2022/07/23 10:24:16;;;;;;;7.07;4.97;;;;;;;33.34;100.00;98384.59;5089353;28;20052;-50
2022/07/23 10:26:52;;;;;;;5.47;4.85;;;;;;;33.58;100.00;98401.53;5089023;28;20098;-51
2022/07/23 10:29:33;;;;;;;11.82;5.38;;;;;;;33.12;100.00;98402.75;5089054;28;20062;-52
2022/07/23 10:32:08;;;;;;;7.80;4.93;;;;;;;33.70;100.00;98402.13;5089023;28;20052;-53
2022/07/23 10:34:44;;;;;;;6.90;5.13;;;;;;;32.92;100.00;98381.31;5088994;28;20052;-51
2022/07/23 10:37:19;;;;;;;6.50;5.15;;;;;;;32.17;100.00;98343.06;5089388;28;20052;-50
2022/07/23 10:39:46;;;;;;;11.68;5.30;;;;;;;33.28;100.00;98334.31;5088989;28;20059;-50
2022/07/23 10:42:14;;;;;;;11.02;5.00;;;;;;;33.51;100.00;98322.63;5089281;28;20595;-53
2022/07/23 10:44:43;;;;;;;5.35;4.80;;;;;;;32.11;100.00;98292.09;5090987;28;20050;-54
2022/07/23 10:47:17;;;;;;;12.38;5.18;;;;;;;33.33;100.00;98306.38;5092556;28;20079;-50
2022/07/23 10:49:44;;;;;;;12.90;5.15;;;;;;;33.44;100.00;98320.38;5092387;28;20048;-53
2022/07/23 10:52:23;;;;;;;5.57;4.90;;;;;;;31.38;100.00;98227.72;5092223;28;20061;-49
2022/07/23 10:54:52;;;;;;;7.15;5.13;;;;;;;32.12;100.00;98275.84;5092275;28;20109;-54
2022/07/23 10:57:21;;;;;;;7.60;5.00;;;;;;;32.56;100.00;98291.53;5092179;28;20066;-53
2022/07/23 11:00:21;;;;;;;7.53;5.22;;;;;;;32.07;100.00;98245.50;5092416;28;20051;-50
2022/07/23 11:02:48;;;;;;;5.60;5.15;;;;;;;32.48;100.00;98273.59;5090292;28;20142;-50
2022/07/23 11:05:16;;;;;;;8.60;5.18;;;;;;;32.15;100.00;98260.59;5092282;28;20048;-50
2022/07/23 11:08:11;;;;;;;5.97;5.38;;;;;;;31.66;100.00;98235.16;5092105;28;20531;-51
2022/07/23 11:10:40;;;;;;;10.07;5.43;;;;;;;31.45;100.00;98236.91;5092023;28;20052;-53
2022/07/23 11:13:42;;;;;;;8.13;4.97;;;;;;;31.86;100.00;98214.06;5092631;28;20456;-51
2022/07/23 11:16:29;;;;;;;6.55;4.80;;;;;;;32.19;100.00;98217.75;5092037;28;20673;-52
2022/07/23 11:19:08;;;;;;;9.32;5.07;;;;;;;32.50;100.00;98259.66;5091899;28;20104;-51
2022/07/23 11:21:50;;;;;;;8.40;4.95;;;;;;;31.43;100.00;98226.13;5091871;28;20539;-53
2022/07/23 11:24:22;;;;;;;7.30;5.60;;;;;;;30.91;100.00;98215.78;5091968;28;20056;-54
2022/07/23 11:26:57;;;;;;;5.78;5.20;;;;;;;31.05;100.00;98191.22;5091778;28;20533;-52